Time,TemperatureF,DewpointF,PressureIn,WindDirection,WindDirectionDegrees,WindSpeedMPH,WindSpeedGustMPH,Humidity,HourlyPrecipIn,Conditions,Clouds,dailyrainin,SoftwareType,DateUTC
2013-06-27 00:02:00,67.8,58.8,26.54,West,270,0.0,0.0,73,0.00,,,0.00,WUHU216HW,2013-06-27 04:02:00,
2013-06-27 00:07:00,67.8,58.8,26.54,West,270,0.0,0.0,73,0.00,,,0.00,WUHU216HW,2013-06-27 04:07:00,
2013-06-27 00:12:00,67.8,58.8,26.54,West,270,0.0,0.0,73,0.00,,,0.00,WUHU216HW,2013-06-27 04:12:00,
2013-06-27 00:17:00,67.8,58.8,26.55,West,270,0.0,0.0,73,0.00,,,0.00,WUHU216HW,2013-06-27 04:17:00,
2013-06-27 00:22:00,67.6,58.6,26.55,West,270,0.0,0.0,73,0.00,,,0.00,WUHU216HW,2013-06-27 04:22:00,
2013-06-27 00:27:00,67.6,58.6,26.54,West,270,0.0,0.0,73,0.00,,,0.00,WUHU216HW,2013-06-27 04:27:00,
2013-06-27 00:32:00,67.6,58.3,26.54,West,270,0.0,0.0,72,0.00,,,0.00,WUHU216HW,2013-06-27 04:32:00,
2013-06-27 00:37:00,67.6,58.6,26.54,West,270,0.0,0.0,73,0.00,,,0.00,WUHU216HW,2013-06-27 04:37:00,
2013-06-27 00:42:00,67.4,58.8,26.54,West,270,0.0,0.0,74,0.00,,,0.00,WUHU216HW,2013-06-27 04:42:00,
2013-06-27 00:47:00,67.1,58.1,26.53,West,270,0.0,0.0,73,0.00,,,0.00,WUHU216HW,2013-06-27 04:47:00,
2013-06-27 00:52:00,67.1,58.1,26.54,West,270,0.0,0.0,73,0.00,,,0.00,WUHU216HW,2013-06-27 04:52:00,
2013-06-27 00:57:00,67.1,58.1,26.54,West,270,0.0,0.0,73,0.00,,,0.00,WUHU216HW,2013-06-27 04:57:00,
2013-06-27 01:02:00,67.1,58.5,26.54,West,270,0.0,0.0,74,0.00,,,0.00,WUHU216HW,2013-06-27 05:02:00,
2013-06-27 01:23:00,66.3,58.1,26.53,South,180,0.0,4.9,75,0.00,,,0.00,WUHU216HW,2013-06-27 05:23:00,
2013-06-27 01:28:00,66.0,57.8,26.53,South,180,2.4,4.9,75,0.00,,,0.00,WUHU216HW,2013-06-27 05:28:00,
2013-06-27 01:33:00,66.0,58.2,26.52,South,180,0.0,2.4,76,0.00,,,0.00,WUHU216HW,2013-06-27 05:33:00,
2013-06-27 01:38:00,65.8,58.0,26.52,South,180,2.9,3.5,76,0.00,,,0.00,WUHU216HW,2013-06-27 05:38:00,
2013-06-27 01:43:00,65.8,58.0,26.53,South,180,3.1,3.5,76,0.00,,,0.00,WUHU216HW,2013-06-27 05:43:00,
2013-06-27 01:48:00,65.6,57.8,26.53,South,180,1.5,3.1,76,0.00,,,0.00,WUHU216HW,2013-06-27 05:48:00,
2013-06-27 01:53:00,65.4,58.0,26.52,South,180,0.0,3.1,77,0.00,,,0.00,WUHU216HW,2013-06-27 05:53:00,
2013-06-27 01:58:00,65.4,58.0,26.52,South,180,0.6,1.1,77,0.00,,,0.00,WUHU216HW,2013-06-27 05:58:00,
2013-06-27 02:03:00,65.4,58.0,26.52,South,180,2.4,2.4,77,0.00,,,0.00,WUHU216HW,2013-06-27 06:03:00,
2013-06-27 02:08:00,65.4,58.4,26.51,South,180,0.0,2.4,78,0.00,,,0.00,WUHU216HW,2013-06-27 06:08:00,
2013-06-27 02:13:00,65.4,58.8,26.51,South,180,1.7,3.3,79,0.00,,,0.00,WUHU216HW,2013-06-27 06:13:00,
2013-06-27 02:18:00,65.3,58.6,26.50,South,180,0.0,3.3,79,0.00,,,0.00,WUHU216HW,2013-06-27 06:18:00,
2013-06-27 02:23:00,65.3,58.6,26.50,South,180,0.0,2.2,79,0.00,,,0.00,WUHU216HW,2013-06-27 06:23:00,
2013-06-27 02:28:00,65.1,58.4,26.50,South,180,0.0,0.0,79,0.00,,,0.00,WUHU216HW,2013-06-27 06:28:00,
2013-06-27 02:33:00,65.1,58.4,26.51,WNW,293,5.5,5.5,79,0.00,,,0.00,WUHU216HW,2013-06-27 06:33:00,
2013-06-27 02:38:00,64.5,58.2,26.51,WNW,293,1.7,5.5,80,0.00,,,0.00,WUHU216HW,2013-06-27 06:38:00,
2013-06-27 02:43:00,64.5,58.6,26.50,SW,225,0.0,2.6,81,0.00,,,0.00,WUHU216HW,2013-06-27 06:43:00,
2013-06-27 02:48:00,64.5,58.6,26.48,SW,225,0.0,1.7,81,0.00,,,0.00,WUHU216HW,2013-06-27 06:48:00,
2013-06-27 02:53:00,64.5,58.6,26.47,SW,225,0.0,0.0,81,0.00,,,0.00,WUHU216HW,2013-06-27 06:53:00,
2013-06-27 02:58:00,64.5,58.6,26.47,SW,225,0.0,0.0,81,0.00,,,0.00,WUHU216HW,2013-06-27 06:58:00,
2013-06-27 03:03:00,64.5,58.9,26.47,WSW,248,0.0,0.0,82,0.00,,,0.00,WUHU216HW,2013-06-27 07:03:00,
2013-06-27 03:08:00,64.9,59.3,26.47,WSW,248,0.0,0.0,82,0.00,,,0.00,WUHU216HW,2013-06-27 07:08:00,
2013-06-27 03:13:00,64.9,59.3,26.46,WSW,248,0.0,0.0,82,0.00,,,0.00,WUHU216HW,2013-06-27 07:13:00,
2013-06-27 03:18:00,65.1,59.1,26.46,WSW,248,0.0,0.0,81,0.00,,,0.00,WUHU216HW,2013-06-27 07:18:00,
2013-06-27 03:23:00,65.1,59.1,26.45,SW,225,0.0,0.0,81,0.00,,,0.00,WUHU216HW,2013-06-27 07:23:00,
2013-06-27 03:28:00,65.1,59.1,26.46,SSW,203,1.5,1.5,81,0.00,,,0.00,WUHU216HW,2013-06-27 07:28:00,
2013-06-27 03:33:00,64.9,58.9,26.45,South,180,0.8,2.9,81,0.00,,,0.00,WUHU216HW,2013-06-27 07:33:00,
2013-06-27 03:38:00,64.9,58.9,26.46,South,180,1.7,3.1,81,0.00,,,0.00,WUHU216HW,2013-06-27 07:38:00,
2013-06-27 03:43:00,64.9,58.9,26.46,South,180,0.0,3.1,81,0.00,,,0.00,WUHU216HW,2013-06-27 07:43:00,
2013-06-27 03:48:00,64.9,58.9,26.45,South,180,0.0,1.7,81,0.00,,,0.00,WUHU216HW,2013-06-27 07:48:00,
2013-06-27 03:53:00,65.1,59.1,26.45,South,180,3.5,3.5,81,0.00,,,0.00,WUHU216HW,2013-06-27 07:53:00,
2013-06-27 03:58:00,64.9,58.9,26.45,South,180,3.5,3.5,81,0.00,,,0.00,WUHU216HW,2013-06-27 07:58:00,
2013-06-27 04:04:00,64.9,58.9,26.44,South,180,3.3,3.5,81,0.00,,,0.00,WUHU216HW,2013-06-27 08:04:00,
2013-06-27 04:09:00,64.9,58.9,26.44,SSE,158,2.0,3.5,81,0.00,,,0.00,WUHU216HW,2013-06-27 08:09:00,
2013-06-27 04:14:00,64.7,58.7,26.44,SSE,158,0.0,2.2,81,0.00,,,0.00,WUHU216HW,2013-06-27 08:14:00,
2013-06-27 04:19:00,64.9,58.9,26.44,SSE,158,0.0,2.0,81,0.00,,,0.00,WUHU216HW,2013-06-27 08:19:00,
2013-06-27 04:24:00,64.7,58.7,26.44,SSE,158,3.3,4.6,81,0.00,,,0.00,WUHU216HW,2013-06-27 08:24:00,
2013-06-27 04:29:00,64.9,58.9,26.45,South,180,3.5,4.6,81,0.00,,,0.00,WUHU216HW,2013-06-27 08:29:00,
2013-06-27 04:34:00,64.9,59.3,26.44,SSE,158,0.0,3.8,82,0.00,,,0.00,WUHU216HW,2013-06-27 08:34:00,
2013-06-27 04:39:00,64.9,59.3,26.44,SSE,158,0.0,3.5,82,0.00,,,0.00,WUHU216HW,2013-06-27 08:39:00,
2013-06-27 04:44:00,65.1,59.4,26.44,SSE,158,0.0,4.2,82,0.00,,,0.00,WUHU216HW,2013-06-27 08:44:00,
2013-06-27 04:49:00,65.3,59.3,26.44,SSE,158,0.0,4.2,81,0.00,,,0.00,WUHU216HW,2013-06-27 08:49:00,
2013-06-27 04:54:00,65.4,59.8,26.43,SSE,158,3.8,3.8,82,0.00,,,0.00,WUHU216HW,2013-06-27 08:54:00,
2013-06-27 04:59:00,65.4,59.8,26.43,SSE,158,0.0,3.8,82,0.00,,,0.00,WUHU216HW,2013-06-27 08:59:00,
2013-06-27 05:04:00,65.4,59.8,26.44,SSE,158,3.1,3.8,82,0.00,,,0.00,WUHU216HW,2013-06-27 09:04:00,
2013-06-27 05:09:00,65.4,59.5,26.45,West,270,0.0,4.4,81,0.00,,,0.00,WUHU216HW,2013-06-27 09:09:00,
2013-06-27 05:14:00,65.1,59.1,26.46,WNW,293,0.0,4.4,81,0.00,,,0.00,WUHU216HW,2013-06-27 09:14:00,
2013-06-27 05:19:00,65.1,59.4,26.45,WNW,293,0.0,0.0,82,0.00,,,0.00,WUHU216HW,2013-06-27 09:19:00,
2013-06-27 05:24:00,64.9,59.3,26.45,WNW,293,0.0,0.0,82,0.00,,,0.00,WUHU216HW,2013-06-27 09:24:00,
2013-06-27 05:29:00,64.7,59.1,26.44,West,270,0.0,1.7,82,0.00,,,0.00,WUHU216HW,2013-06-27 09:29:00,
2013-06-27 05:34:00,64.5,58.9,26.45,WNW,293,0.0,1.7,82,0.00,,,0.00,WUHU216HW,2013-06-27 09:34:00,
2013-06-27 05:39:00,64.5,58.9,26.45,WNW,293,0.0,0.0,82,0.00,,,0.00,WUHU216HW,2013-06-27 09:39:00,
2013-06-27 05:44:00,64.2,58.9,26.45,WNW,293,0.0,0.0,83,0.00,,,0.00,WUHU216HW,2013-06-27 09:44:00,
2013-06-27 05:49:00,64.2,58.9,26.44,WNW,293,5.5,5.5,83,0.00,,,0.00,WUHU216HW,2013-06-27 09:49:00,
2013-06-27 05:54:00,64.0,58.7,26.44,WNW,293,0.0,5.5,83,0.00,,,0.00,WUHU216HW,2013-06-27 09:54:00,
2013-06-27 05:59:00,63.6,58.4,26.44,WNW,293,7.3,7.3,83,0.00,,,0.00,WUHU216HW,2013-06-27 09:59:00,
2013-06-27 06:04:00,63.5,58.2,26.44,West,270,6.4,7.3,83,0.00,,,0.00,WUHU216HW,2013-06-27 10:04:00,
2013-06-27 06:09:00,63.3,58.3,26.44,WNW,293,2.2,7.3,84,0.00,,,0.00,WUHU216HW,2013-06-27 10:09:00,
2013-06-27 06:14:00,63.1,57.8,26.43,NW,315,3.8,7.3,83,0.00,,,0.00,WUHU216HW,2013-06-27 10:14:00,
2013-06-27 06:19:00,62.7,57.8,26.44,NW,315,5.8,5.8,84,0.00,,,0.00,WUHU216HW,2013-06-27 10:19:00,
2013-06-27 06:24:00,62.7,57.8,26.44,WNW,293,4.0,5.8,84,0.00,,,0.00,WUHU216HW,2013-06-27 10:24:00,
2013-06-27 06:29:00,62.4,57.4,26.44,NW,315,5.5,7.3,84,0.00,,,0.00,WUHU216HW,2013-06-27 10:29:00,
2013-06-27 06:34:00,62.4,57.4,26.45,NW,315,0.6,7.3,84,0.00,,,0.00,WUHU216HW,2013-06-27 10:34:00,
2013-06-27 06:39:00,62.2,57.3,26.45,WNW,293,2.4,7.1,84,0.00,,,0.00,WUHU216HW,2013-06-27 10:39:00,
2013-06-27 06:44:00,62.2,57.6,26.45,WNW,293,2.9,7.1,85,0.00,,,0.00,WUHU216HW,2013-06-27 10:44:00,
2013-06-27 06:49:00,62.2,57.6,26.45,WNW,293,4.2,4.4,85,0.00,,,0.00,WUHU216HW,2013-06-27 10:49:00,
2013-06-27 06:54:00,62.0,57.4,26.45,NW,315,4.9,6.2,85,0.00,,,0.00,WUHU216HW,2013-06-27 10:54:00,
2013-06-27 06:59:00,62.0,57.4,26.45,NW,315,0.0,6.2,85,0.00,,,0.00,WUHU216HW,2013-06-27 10:59:00,
2013-06-27 07:04:00,61.8,57.3,26.46,NW,315,4.0,4.9,85,0.00,,,0.00,WUHU216HW,2013-06-27 11:04:00,
2013-06-27 07:09:00,61.8,57.3,26.46,NW,315,0.0,4.4,85,0.00,,,0.00,WUHU216HW,2013-06-27 11:09:00,
2013-06-27 07:14:00,61.8,57.3,26.46,WNW,293,0.0,4.0,85,0.00,,,0.00,WUHU216HW,2013-06-27 11:14:00,
2013-06-27 07:19:00,61.8,57.3,26.46,WNW,293,2.9,4.0,85,0.00,,,0.00,WUHU216HW,2013-06-27 11:19:00,
2013-06-27 07:24:00,61.8,57.3,26.45,WNW,293,4.0,4.0,85,0.00,,,0.00,WUHU216HW,2013-06-27 11:24:00,
2013-06-27 07:29:00,61.8,57.3,26.45,NW,315,2.6,4.4,85,0.00,,,0.00,WUHU216HW,2013-06-27 11:29:00,
2013-06-27 07:34:00,61.7,57.1,26.45,NW,315,5.3,5.5,85,0.00,,,0.00,WUHU216HW,2013-06-27 11:34:00,
2013-06-27 07:39:00,61.5,56.9,26.45,WNW,293,3.8,5.5,85,0.00,,,0.00,WUHU216HW,2013-06-27 11:39:00,
2013-06-27 07:44:00,61.5,56.9,26.45,NW,315,4.4,5.3,85,0.00,,,0.00,WUHU216HW,2013-06-27 11:44:00,
2013-06-27 07:49:00,61.5,56.9,26.45,NW,315,6.0,6.0,85,0.00,,,0.00,WUHU216HW,2013-06-27 11:49:00,
2013-06-27 07:54:00,61.5,56.9,26.45,WNW,293,5.3,6.0,85,0.00,,,0.00,WUHU216HW,2013-06-27 11:54:00,
2013-06-27 07:59:00,61.5,56.9,26.45,NW,315,4.6,6.0,85,0.00,,,0.00,WUHU216HW,2013-06-27 11:59:00,
2013-06-27 08:05:00,61.5,56.9,26.46,WNW,293,3.5,6.7,85,0.00,,,0.00,WUHU216HW,2013-06-27 12:05:00,
2013-06-27 08:10:00,61.7,57.1,26.46,WNW,293,0.0,6.7,85,0.00,,,0.00,WUHU216HW,2013-06-27 12:10:00,
2013-06-27 08:15:00,61.8,57.3,26.46,NW,315,5.1,5.1,85,0.00,,,0.00,WUHU216HW,2013-06-27 12:15:00,
2013-06-27 08:20:00,61.8,57.3,26.46,NW,315,2.2,5.1,85,0.00,,,0.00,WUHU216HW,2013-06-27 12:20:00,
2013-06-27 08:25:00,62.0,57.4,26.46,NW,315,4.0,4.0,85,0.00,,,0.00,WUHU216HW,2013-06-27 12:25:00,
2013-06-27 08:30:00,62.2,57.6,26.46,NW,315,3.3,4.0,85,0.00,,,0.00,WUHU216HW,2013-06-27 12:30:00,
2013-06-27 08:35:00,62.2,57.6,26.46,NW,315,4.9,4.9,85,0.00,,,0.00,WUHU216HW,2013-06-27 12:35:00,
2013-06-27 08:40:00,62.2,57.6,26.46,NW,315,5.5,5.5,85,0.00,,,0.00,WUHU216HW,2013-06-27 12:40:00,
2013-06-27 08:45:00,62.2,57.6,26.45,NW,315,3.8,5.8,85,0.00,,,0.00,WUHU216HW,2013-06-27 12:45:00,
2013-06-27 08:50:00,62.2,57.6,26.45,NW,315,5.3,5.8,85,0.00,,,0.00,WUHU216HW,2013-06-27 12:50:00,
2013-06-27 08:55:00,62.4,57.8,26.45,NW,315,5.1,5.3,85,0.00,,,0.00,WUHU216HW,2013-06-27 12:55:00,
2013-06-27 09:00:00,62.4,57.8,26.45,NW,315,2.9,5.1,85,0.00,,,0.00,WUHU216HW,2013-06-27 13:00:00,
2013-06-27 09:05:00,62.6,58.0,26.45,NW,315,6.0,6.0,85,0.00,,,0.00,WUHU216HW,2013-06-27 13:05:00,
2013-06-27 09:10:00,62.7,57.8,26.45,NW,315,5.1,6.9,84,0.00,,,0.00,WUHU216HW,2013-06-27 13:10:00,
2013-06-27 09:15:00,63.1,58.2,26.45,WNW,293,0.0,6.9,84,0.00,,,0.00,WUHU216HW,2013-06-27 13:15:00,
2013-06-27 09:20:00,63.1,58.2,26.45,WNW,293,0.0,5.1,84,0.00,,,0.00,WUHU216HW,2013-06-27 13:20:00,
2013-06-27 09:25:00,63.3,58.3,26.46,NW,315,0.0,0.0,84,0.00,,,0.00,WUHU216HW,2013-06-27 13:25:00,
2013-06-27 09:30:00,63.3,58.3,26.45,NW,315,0.0,0.0,84,0.00,,,0.00,WUHU216HW,2013-06-27 13:30:00,
2013-06-27 09:35:00,63.6,58.4,26.46,NW,315,1.3,2.4,83,0.00,,,0.00,WUHU216HW,2013-06-27 13:35:00,
2013-06-27 09:40:00,63.8,58.5,26.45,NW,315,0.0,2.4,83,0.00,,,0.00,WUHU216HW,2013-06-27 13:40:00,
2013-06-27 09:45:00,64.2,58.9,26.45,NW,315,0.0,2.6,83,0.00,,,0.00,WUHU216HW,2013-06-27 13:45:00,
2013-06-27 09:50:00,64.2,58.9,26.45,NW,315,1.7,3.3,83,0.00,,,0.00,WUHU216HW,2013-06-27 13:50:00,
2013-06-27 09:55:00,64.4,58.6,26.45,NW,315,0.6,3.3,82,0.00,,,0.00,WUHU216HW,2013-06-27 13:55:00,
2013-06-27 10:00:00,64.5,58.9,26.45,NW,315,0.0,0.6,82,0.00,,,0.00,WUHU216HW,2013-06-27 14:00:00,
2013-06-27 10:05:00,64.9,59.3,26.45,WNW,293,1.7,4.6,82,0.00,,,0.00,WUHU216HW,2013-06-27 14:05:00,
2013-06-27 10:10:00,65.1,59.4,26.45,WNW,293,0.0,4.6,82,0.00,,,0.00,WUHU216HW,2013-06-27 14:10:00,
2013-06-27 10:15:00,64.5,58.9,26.46,NW,315,0.0,4.2,82,0.00,,,0.00,WUHU216HW,2013-06-27 14:15:00,
2013-06-27 10:20:00,64.2,58.6,26.46,WNW,293,0.0,0.0,82,0.00,,,0.00,WUHU216HW,2013-06-27 14:20:00,
2013-06-27 10:25:00,64.0,58.7,26.46,WNW,293,0.0,0.0,83,0.00,,,0.00,WUHU216HW,2013-06-27 14:25:00,
2013-06-27 10:30:00,64.0,58.7,26.46,WNW,293,0.0,0.0,83,0.00,,,0.00,WUHU216HW,2013-06-27 14:30:00,
2013-06-27 10:35:00,63.6,58.7,26.46,NW,315,0.0,0.0,84,0.00,,,0.00,WUHU216HW,2013-06-27 14:35:00,
2013-06-27 10:40:00,62.9,58.0,26.46,NW,315,0.0,0.0,84,0.00,,,0.00,WUHU216HW,2013-06-27 14:40:00,
2013-06-27 10:45:00,62.7,58.1,26.46,NW,315,0.2,0.2,85,0.00,,,0.00,WUHU216HW,2013-06-27 14:45:00,
2013-06-27 10:50:00,62.4,57.8,26.46,WNW,293,0.0,0.2,85,0.00,,,0.00,WUHU216HW,2013-06-27 14:50:00,
2013-06-27 10:55:00,62.0,57.8,26.46,NW,315,0.0,0.2,86,0.00,,,0.00,WUHU216HW,2013-06-27 14:55:00,
2013-06-27 11:00:00,61.8,57.6,26.46,NW,315,0.0,0.0,86,0.00,,,0.00,WUHU216HW,2013-06-27 15:00:00,
2013-06-27 11:05:00,61.8,57.9,26.46,NW,315,0.0,0.0,87,0.00,,,0.00,WUHU216HW,2013-06-27 15:05:00,
2013-06-27 11:10:00,61.8,57.9,26.46,NW,315,0.0,0.0,87,0.00,,,0.00,WUHU216HW,2013-06-27 15:10:00,
2013-06-27 11:15:00,62.0,58.1,26.46,NW,315,0.0,0.0,87,0.00,,,0.00,WUHU216HW,2013-06-27 15:15:00,
2013-06-27 11:21:00,62.2,58.3,26.46,NW,315,0.0,0.0,87,0.00,,,0.00,WUHU216HW,2013-06-27 15:21:00,
2013-06-27 11:26:00,62.4,58.8,26.46,NW,315,0.0,0.0,88,0.00,,,0.00,WUHU216HW,2013-06-27 15:26:00,
2013-06-27 11:31:00,62.4,58.8,26.46,NW,315,0.0,0.0,88,0.00,,,0.00,WUHU216HW,2013-06-27 15:31:00,
2013-06-27 11:36:00,62.2,58.6,26.46,NW,315,0.0,0.0,88,0.00,,,0.00,WUHU216HW,2013-06-27 15:36:00,
2013-06-27 11:41:00,62.4,58.8,26.46,NW,315,0.0,0.0,88,0.00,,,0.00,WUHU216HW,2013-06-27 15:41:00,
2013-06-27 11:46:00,62.4,58.8,26.46,NW,315,0.0,0.0,88,0.00,,,0.00,WUHU216HW,2013-06-27 15:46:00,
2013-06-27 11:51:00,62.4,58.8,26.46,NW,315,0.0,0.0,88,0.00,,,0.00,WUHU216HW,2013-06-27 15:51:00,
2013-06-27 11:56:00,62.6,59.3,26.46,NW,315,0.0,0.0,89,0.00,,,0.00,WUHU216HW,2013-06-27 15:56:00,
2013-06-27 12:01:00,62.9,59.7,26.46,WNW,293,1.7,1.7,89,0.00,,,0.00,WUHU216HW,2013-06-27 16:01:00,
2013-06-27 12:06:00,63.1,59.9,26.46,WNW,293,0.0,1.7,89,0.00,,,0.00,WUHU216HW,2013-06-27 16:06:00,
2013-06-27 12:11:00,63.3,60.0,26.46,NW,315,0.0,1.7,89,0.00,,,0.00,WUHU216HW,2013-06-27 16:11:00,
2013-06-27 12:16:00,63.5,60.2,26.46,NW,315,0.0,0.0,89,0.00,,,0.00,WUHU216HW,2013-06-27 16:16:00,
2013-06-27 12:21:00,63.6,60.4,26.45,NW,315,0.0,0.0,89,0.00,,,0.00,WUHU216HW,2013-06-27 16:21:00,
2013-06-27 12:26:00,64.2,60.9,26.45,NW,315,0.0,0.0,89,0.00,,,0.00,WUHU216HW,2013-06-27 16:26:00,
2013-06-27 12:31:00,64.2,61.3,26.45,NW,315,0.0,0.0,90,0.00,,,0.00,WUHU216HW,2013-06-27 16:31:00,
2013-06-27 12:36:00,64.5,61.6,26.45,NW,315,0.0,0.0,90,0.00,,,0.00,WUHU216HW,2013-06-27 16:36:00,
2013-06-27 12:41:00,64.5,61.6,26.45,WNW,293,0.0,0.0,90,0.00,,,0.00,WUHU216HW,2013-06-27 16:41:00,
2013-06-27 12:46:00,64.7,61.8,26.45,NW,315,0.0,1.1,90,0.00,,,0.00,WUHU216HW,2013-06-27 16:46:00,
2013-06-27 12:51:00,64.7,61.8,26.45,NW,315,0.0,1.1,90,0.00,,,0.00,WUHU216HW,2013-06-27 16:51:00,
2013-06-27 12:56:00,64.9,62.0,26.46,NW,315,0.0,0.0,90,0.00,,,0.00,WUHU216HW,2013-06-27 16:56:00,
2013-06-27 13:01:00,65.1,62.1,26.45,WNW,293,0.0,0.0,90,0.00,,,0.00,WUHU216HW,2013-06-27 17:01:00,
2013-06-27 13:06:00,65.3,62.3,26.46,WNW,293,0.0,0.0,90,0.00,,,0.00,WUHU216HW,2013-06-27 17:06:00,
2013-06-27 13:11:00,65.3,62.3,26.46,NW,315,0.0,0.0,90,0.00,,,0.00,WUHU216HW,2013-06-27 17:11:00,
2013-06-27 13:16:00,65.3,62.3,26.45,NW,315,0.0,0.0,90,0.00,,,0.00,WUHU216HW,2013-06-27 17:16:00,
2013-06-27 13:21:00,65.3,62.3,26.46,WNW,293,0.0,0.0,90,0.00,,,0.00,WUHU216HW,2013-06-27 17:21:00,
2013-06-27 13:26:00,65.4,62.4,26.45,WNW,293,0.0,0.6,90,0.00,,,0.00,WUHU216HW,2013-06-27 17:26:00,
2013-06-27 13:31:00,65.3,62.3,26.45,NW,315,0.0,0.6,90,0.00,,,0.00,WUHU216HW,2013-06-27 17:31:00,
2013-06-27 13:36:00,65.4,62.4,26.45,WNW,293,0.0,0.0,90,0.00,,,0.00,WUHU216HW,2013-06-27 17:36:00,
2013-06-27 13:41:00,65.4,62.4,26.45,NW,315,0.0,0.0,90,0.00,,,0.00,WUHU216HW,2013-06-27 17:41:00,
2013-06-27 13:46:00,65.4,62.4,26.45,NW,315,4.6,4.6,90,0.00,,,0.00,WUHU216HW,2013-06-27 17:46:00,
2013-06-27 13:51:00,65.4,62.4,26.45,WNW,293,2.0,4.6,90,0.00,,,0.00,WUHU216HW,2013-06-27 17:51:00,
2013-06-27 13:56:00,65.6,62.6,26.45,WNW,293,0.0,2.0,90,0.00,,,0.00,WUHU216HW,2013-06-27 17:56:00,
2013-06-27 14:01:00,65.8,62.8,26.45,NW,315,0.0,2.0,90,0.00,,,0.00,WUHU216HW,2013-06-27 18:01:00,
2013-06-27 14:06:00,65.8,62.8,26.45,WNW,293,0.0,2.0,90,0.00,,,0.00,WUHU216HW,2013-06-27 18:06:00,
2013-06-27 14:11:00,66.0,62.9,26.45,WNW,293,0.0,1.3,90,0.00,,,0.00,WUHU216HW,2013-06-27 18:11:00,
2013-06-27 14:16:00,66.0,62.9,26.45,WNW,293,0.0,0.0,90,0.00,,,0.00,WUHU216HW,2013-06-27 18:16:00,
2013-06-27 14:21:00,66.0,62.9,26.45,NW,315,0.0,0.0,90,0.00,,,0.00,WUHU216HW,2013-06-27 18:21:00,
2013-06-27 14:26:00,66.0,62.9,26.45,WNW,293,0.0,0.0,90,0.00,,,0.00,WUHU216HW,2013-06-27 18:26:00,
2013-06-27 14:31:00,66.2,63.4,26.45,NW,315,0.0,0.0,91,0.00,,,0.00,WUHU216HW,2013-06-27 18:31:00,
2013-06-27 14:36:00,66.2,63.4,26.45,NW,315,0.0,0.0,91,0.00,,,0.00,WUHU216HW,2013-06-27 18:36:00,
2013-06-27 14:41:00,66.3,63.6,26.44,NW,315,0.0,0.0,91,0.00,,,0.00,WUHU216HW,2013-06-27 18:41:00,
2013-06-27 14:46:00,66.3,63.6,26.44,NW,315,0.0,0.0,91,0.00,,,0.00,WUHU216HW,2013-06-27 18:46:00,
2013-06-27 14:51:00,66.3,63.6,26.44,WNW,293,0.0,0.8,91,0.00,,,0.00,WUHU216HW,2013-06-27 18:51:00,
2013-06-27 14:56:00,66.2,63.4,26.44,NW,315,0.0,0.8,91,0.00,,,0.00,WUHU216HW,2013-06-27 18:56:00,
2013-06-27 15:02:00,66.0,63.2,26.44,NW,315,0.0,0.0,91,0.00,,,0.00,WUHU216HW,2013-06-27 19:02:00,
2013-06-27 15:07:00,66.3,63.6,26.44,NW,315,0.0,2.4,91,0.00,,,0.00,WUHU216HW,2013-06-27 19:07:00,
2013-06-27 15:12:00,66.3,63.6,26.44,NW,315,0.0,2.4,91,0.00,,,0.00,WUHU216HW,2013-06-27 19:12:00,
2013-06-27 15:17:00,66.3,63.6,26.44,NW,315,0.0,1.1,91,0.00,,,0.00,WUHU216HW,2013-06-27 19:17:00,
2013-06-27 15:22:00,66.7,63.9,26.43,NW,315,1.7,1.7,91,0.00,,,0.00,WUHU216HW,2013-06-27 19:22:00,
2013-06-27 15:27:00,66.7,63.9,26.43,NW,315,0.0,1.7,91,0.00,,,0.00,WUHU216HW,2013-06-27 19:27:00,
2013-06-27 15:32:00,66.9,64.1,26.43,NW,315,1.3,3.1,91,0.00,,,0.00,WUHU216HW,2013-06-27 19:32:00,
2013-06-27 15:37:00,66.9,64.1,26.43,NW,315,5.3,5.3,91,0.00,,,0.00,WUHU216HW,2013-06-27 19:37:00,
2013-06-27 15:42:00,67.1,64.3,26.43,NW,315,4.4,6.4,91,0.00,,,0.00,WUHU216HW,2013-06-27 19:42:00,
2013-06-27 15:47:00,67.2,64.5,26.43,NW,315,6.2,6.4,91,0.00,,,0.00,WUHU216HW,2013-06-27 19:47:00,
2013-06-27 15:52:00,67.2,64.5,26.42,NW,315,4.4,6.9,91,0.00,,,0.00,WUHU216HW,2013-06-27 19:52:00,
2013-06-27 15:57:00,67.6,64.8,26.42,NW,315,5.5,6.9,91,0.00,,,0.00,WUHU216HW,2013-06-27 19:57:00,
2013-06-27 16:02:00,67.8,65.0,26.42,NW,315,5.8,5.8,91,0.00,,,0.00,WUHU216HW,2013-06-27 20:02:00,
2013-06-27 16:07:00,67.8,65.0,26.42,NW,315,5.5,5.8,91,0.00,,,0.00,WUHU216HW,2013-06-27 20:07:00,
2013-06-27 16:12:00,67.8,65.0,26.42,NW,315,5.1,5.5,91,0.00,,,0.00,WUHU216HW,2013-06-27 20:12:00,
2013-06-27 16:17:00,68.1,65.7,26.41,NW,315,3.8,5.5,92,0.00,,,0.00,WUHU216HW,2013-06-27 20:17:00,
2013-06-27 16:22:00,68.1,65.4,26.41,NW,315,7.3,7.3,91,0.00,,,0.00,WUHU216HW,2013-06-27 20:22:00,
2013-06-27 16:27:00,68.3,65.6,26.41,NW,315,7.3,7.3,91,0.00,,,0.00,WUHU216HW,2013-06-27 20:27:00,
2013-06-27 16:32:00,68.3,65.7,26.41,WNW,293,7.1,7.3,91,0.00,,,0.00,WUHU216HW,2013-06-27 20:32:00,
2013-06-27 16:38:00,68.5,65.4,26.41,NW,315,7.6,7.6,90,0.00,,,0.00,WUHU216HW,2013-06-27 20:38:00,
2013-06-27 16:43:00,68.5,64.9,26.41,NW,315,7.6,8.7,90,0.00,,,0.00,WUHU216HW,2013-06-27 20:43:00,
2013-06-27 16:48:00,68.5,65.1,26.41,NW,315,7.1,8.7,89,0.00,,,0.00,WUHU216HW,2013-06-27 20:48:00,
2013-06-27 16:53:00,68.5,65.1,26.41,NW,315,5.8,7.6,89,0.00,,,0.00,WUHU216HW,2013-06-27 20:53:00,
2013-06-27 16:58:00,68.5,64.8,26.41,NW,315,4.9,7.1,88,0.00,,,0.00,WUHU216HW,2013-06-27 20:58:00,
2013-06-27 17:03:00,68.7,64.9,26.41,NW,315,4.2,5.1,88,0.00,,,0.00,WUHU216HW,2013-06-27 21:03:00,
2013-06-27 17:09:00,68.7,64.9,26.41,NW,315,4.9,6.2,88,0.00,,,0.00,WUHU216HW,2013-06-27 21:09:00,
2013-06-27 17:14:00,68.7,64.6,26.41,NW,315,5.8,6.7,87,0.00,,,0.00,WUHU216HW,2013-06-27 21:14:00,
2013-06-27 17:19:00,68.7,64.6,26.41,NW,315,4.0,6.7,87,0.00,,,0.00,WUHU216HW,2013-06-27 21:19:00,
2013-06-27 17:24:00,68.7,64.3,26.40,WNW,293,6.9,6.9,86,0.00,,,0.00,WUHU216HW,2013-06-27 21:24:00,
2013-06-27 17:29:00,68.9,64.5,26.40,NW,315,4.4,6.9,86,0.00,,,0.00,WUHU216HW,2013-06-27 21:29:00,
2013-06-27 17:35:00,69.2,64.5,26.40,WNW,293,3.1,4.4,85,0.00,,,0.00,WUHU216HW,2013-06-27 21:35:00,
2013-06-27 17:40:00,69.4,64.6,26.40,NW,315,3.1,7.8,85,0.00,,,0.00,WUHU216HW,2013-06-27 21:40:00,
2013-06-27 17:45:00,69.6,64.5,26.39,NW,315,4.0,7.8,84,0.00,,,0.00,WUHU216HW,2013-06-27 21:45:00,
2013-06-27 17:51:00,69.6,64.5,26.39,NW,315,2.4,4.4,84,0.00,,,0.00,WUHU216HW,2013-06-27 21:51:00,
2013-06-27 17:56:00,69.8,64.6,26.39,NW,315,2.9,4.6,84,0.00,,,0.00,WUHU216HW,2013-06-27 21:56:00,
2013-06-27 18:01:00,69.8,64.6,26.39,WNW,293,5.3,5.3,84,0.00,,,0.00,WUHU216HW,2013-06-27 22:01:00,
2013-06-27 18:06:00,70.1,64.7,26.39,NW,315,4.6,5.3,83,0.00,,,0.00,WUHU216HW,2013-06-27 22:06:00,
2013-06-27 18:11:00,70.1,64.7,26.39,NW,315,3.5,4.6,83,0.00,,,0.00,WUHU216HW,2013-06-27 22:11:00,
2013-06-27 18:17:00,70.1,64.7,26.39,NW,315,4.6,4.6,83,0.00,,,0.00,WUHU216HW,2013-06-27 22:17:00,
2013-06-27 18:22:00,70.3,64.8,26.39,NW,315,5.5,5.5,83,0.00,,,0.00,WUHU216HW,2013-06-27 22:22:00,
2013-06-27 18:27:00,70.5,64.7,26.39,NW,315,3.3,5.5,82,0.00,,,0.00,WUHU216HW,2013-06-27 22:27:00,
2013-06-27 18:32:00,70.5,64.7,26.39,NW,315,2.4,4.0,82,0.00,,,0.00,WUHU216HW,2013-06-27 22:32:00,
2013-06-27 18:38:00,70.5,64.7,26.38,NW,315,4.9,5.3,82,0.00,,,0.00,WUHU216HW,2013-06-27 22:38:00,
2013-06-27 18:43:00,70.5,64.7,26.38,NW,315,3.3,5.3,82,0.00,,,0.00,WUHU216HW,2013-06-27 22:43:00,
2013-06-27 18:48:00,70.5,64.7,26.38,NW,315,5.1,5.3,82,0.00,,,0.00,WUHU216HW,2013-06-27 22:48:00,
2013-06-27 18:53:00,70.5,64.7,26.38,NW,315,4.0,6.0,82,0.00,,,0.00,WUHU216HW,2013-06-27 22:53:00,
2013-06-27 18:58:00,70.1,64.3,26.38,NW,315,7.8,7.8,82,0.00,,,0.00,WUHU216HW,2013-06-27 22:58:00,
2013-06-27 19:03:00,69.9,64.1,26.38,WNW,293,4.4,7.8,82,0.00,,,0.00,WUHU216HW,2013-06-27 23:03:00,
2013-06-27 19:08:00,69.9,64.1,26.39,NW,315,2.0,5.5,82,0.00,,,0.00,WUHU216HW,2013-06-27 23:08:00,
2013-06-27 19:13:00,70.1,64.3,26.39,NW,315,5.1,5.5,82,0.00,,,0.00,WUHU216HW,2013-06-27 23:13:00,
2013-06-27 19:18:00,70.3,64.5,26.39,WNW,293,6.4,6.4,82,0.00,,,0.00,WUHU216HW,2013-06-27 23:18:00,
2013-06-27 19:24:00,70.1,64.3,26.38,WNW,293,4.4,7.1,82,0.00,,,0.00,WUHU216HW,2013-06-27 23:24:00,
2013-06-27 19:29:00,70.1,64.3,26.38,WNW,293,8.0,8.0,82,0.00,,,0.00,WUHU216HW,2013-06-27 23:29:00,
2013-06-27 19:34:00,70.1,64.3,26.38,NW,315,4.4,8.0,82,0.00,,,0.00,WUHU216HW,2013-06-27 23:34:00,
2013-06-27 19:39:00,69.9,63.8,26.38,NW,315,6.0,6.9,81,0.00,,,0.00,WUHU216HW,2013-06-27 23:39:00,
2013-06-27 19:44:00,69.8,64.0,26.39,WNW,293,4.9,6.9,82,0.00,,,0.00,WUHU216HW,2013-06-27 23:44:00,
2013-06-27 19:49:00,69.6,63.8,26.38,NW,315,4.2,4.9,82,0.00,,,0.00,WUHU216HW,2013-06-27 23:49:00,
2013-06-27 19:54:00,69.4,63.6,26.38,NW,315,4.4,4.4,82,0.00,,,0.00,WUHU216HW,2013-06-27 23:54:00,
2013-06-27 19:59:00,69.0,63.6,26.38,WNW,293,5.5,6.2,83,0.00,,,0.00,WUHU216HW,2013-06-27 23:59:00,
2013-06-27 20:04:00,69.0,63.6,26.38,WNW,293,6.2,6.2,83,0.00,,,0.00,WUHU216HW,2013-06-28 00:04:00,
2013-06-27 20:09:00,68.9,63.5,26.39,NW,315,2.6,6.2,83,0.00,,,0.00,WUHU216HW,2013-06-28 00:09:00,
2013-06-27 20:14:00,68.5,63.1,26.39,NW,315,6.2,6.2,83,0.00,,,0.00,WUHU216HW,2013-06-28 00:14:00,
2013-06-27 20:19:00,68.5,63.5,26.39,NW,315,5.1,6.2,84,0.00,,,0.00,WUHU216HW,2013-06-28 00:19:00,
2013-06-27 20:24:00,68.3,63.3,26.40,NW,315,5.5,6.2,84,0.00,,,0.00,WUHU216HW,2013-06-28 00:24:00,
2013-06-27 20:30:00,68.1,63.4,26.39,NW,315,4.2,5.8,85,0.00,,,0.00,WUHU216HW,2013-06-28 00:30:00,
2013-06-27 20:35:00,68.1,63.4,26.39,NW,315,3.8,5.8,85,0.00,,,0.00,WUHU216HW,2013-06-28 00:35:00,
2013-06-27 20:40:00,67.8,63.1,26.40,NW,315,5.1,5.1,85,0.00,,,0.00,WUHU216HW,2013-06-28 00:40:00,
2013-06-27 20:45:00,67.8,63.1,26.39,WNW,293,6.4,6.4,85,0.00,,,0.00,WUHU216HW,2013-06-28 00:45:00,
2013-06-27 20:50:00,67.8,63.1,26.40,NW,315,4.4,6.4,85,0.00,,,0.00,WUHU216HW,2013-06-28 00:50:00,
2013-06-27 20:55:00,67.8,63.1,26.40,NW,315,4.9,6.9,85,0.00,,,0.00,WUHU216HW,2013-06-28 00:55:00,
2013-06-27 21:00:00,67.8,63.1,26.40,NW,315,4.6,6.9,85,0.00,,,0.00,WUHU216HW,2013-06-28 01:00:00,
2013-06-27 21:05:00,67.8,63.1,26.40,NW,315,2.9,4.6,85,0.00,,,0.00,WUHU216HW,2013-06-28 01:05:00,
2013-06-27 21:11:00,67.8,63.1,26.41,NW,315,2.4,5.5,85,0.00,,,0.00,WUHU216HW,2013-06-28 01:11:00,
2013-06-27 21:16:00,67.8,63.1,26.41,NW,315,2.4,5.5,85,0.00,,,0.00,WUHU216HW,2013-06-28 01:16:00,
2013-06-27 21:21:00,67.8,63.4,26.41,NW,315,0.8,3.8,86,0.00,,,0.00,WUHU216HW,2013-06-28 01:21:00,
2013-06-27 21:26:00,67.8,63.4,26.41,NW,315,3.5,3.5,86,0.00,,,0.00,WUHU216HW,2013-06-28 01:26:00,
2013-06-27 21:31:00,67.8,63.4,26.41,NW,315,2.9,3.8,86,0.00,,,0.00,WUHU216HW,2013-06-28 01:31:00,
2013-06-27 21:36:00,67.8,63.4,26.42,NW,315,3.3,3.8,86,0.00,,,0.00,WUHU216HW,2013-06-28 01:36:00,
2013-06-27 21:41:00,67.8,63.4,26.41,NW,315,0.0,3.3,86,0.00,,,0.00,WUHU216HW,2013-06-28 01:41:00,
2013-06-27 21:46:00,67.8,63.4,26.42,NW,315,1.5,3.3,86,0.00,,,0.00,WUHU216HW,2013-06-28 01:46:00,
2013-06-27 21:51:00,67.8,63.4,26.42,NW,315,4.6,4.6,86,0.00,,,0.00,WUHU216HW,2013-06-28 01:51:00,
2013-06-27 21:56:00,67.8,63.4,26.42,NW,315,4.2,4.6,86,0.00,,,0.00,WUHU216HW,2013-06-28 01:56:00,
2013-06-27 22:02:00,68.0,63.4,26.42,NW,315,4.2,4.6,86,0.00,,,0.00,WUHU216HW,2013-06-28 02:02:00,
2013-06-27 22:07:00,67.8,63.4,26.42,NW,315,2.2,4.2,86,0.00,,,0.00,WUHU216HW,2013-06-28 02:07:00,
2013-06-27 22:12:00,67.8,63.4,26.42,NW,315,2.4,4.2,86,0.00,,,0.00,WUHU216HW,2013-06-28 02:12:00,
2013-06-27 22:17:00,67.8,63.4,26.43,NW,315,0.0,2.9,86,0.00,,,0.00,WUHU216HW,2013-06-28 02:17:00,
2013-06-27 22:22:00,67.6,63.2,26.43,NW,315,0.0,0.0,86,0.00,,,0.00,WUHU216HW,2013-06-28 02:22:00,
2013-06-27 22:27:00,67.6,63.2,26.43,WNW,293,0.0,0.0,86,0.00,,,0.00,WUHU216HW,2013-06-28 02:27:00,
2013-06-27 22:32:00,67.8,63.4,26.43,WNW,293,0.0,0.0,86,0.00,,,0.00,WUHU216HW,2013-06-28 02:32:00,
2013-06-27 22:37:00,67.8,63.4,26.43,WNW,293,0.0,0.0,86,0.00,,,0.00,WUHU216HW,2013-06-28 02:37:00,
2013-06-27 22:42:00,67.8,63.4,26.43,WNW,293,0.6,0.6,86,0.00,,,0.00,WUHU216HW,2013-06-28 02:42:00,
2013-06-27 22:47:00,67.8,63.4,26.43,WNW,293,0.0,0.6,86,0.00,,,0.00,WUHU216HW,2013-06-28 02:47:00,
2013-06-27 22:52:00,67.8,63.4,26.43,WNW,293,2.6,2.6,86,0.00,,,0.00,WUHU216HW,2013-06-28 02:52:00,
2013-06-27 22:57:00,67.8,63.4,26.44,WNW,293,0.0,3.1,86,0.00,,,0.00,WUHU216HW,2013-06-28 02:57:00,
2013-06-27 23:02:00,67.8,63.4,26.44,WNW,293,2.6,3.1,86,0.00,,,0.00,WUHU216HW,2013-06-28 03:02:00,
2013-06-27 23:07:00,68.0,63.6,26.43,NW,315,4.4,4.4,86,0.00,,,0.00,WUHU216HW,2013-06-28 03:07:00,
2013-06-27 23:12:00,68.0,63.6,26.43,WNW,293,2.6,4.4,86,0.00,,,0.00,WUHU216HW,2013-06-28 03:12:00,
2013-06-27 23:18:00,67.8,63.4,26.43,WNW,293,0.0,3.3,86,0.00,,,0.00,WUHU216HW,2013-06-28 03:18:00,
2013-06-27 23:23:00,67.8,63.4,26.42,NW,315,2.6,2.6,86,0.00,,,0.00,WUHU216HW,2013-06-28 03:23:00,
2013-06-27 23:28:00,67.8,63.4,26.42,WNW,293,2.2,4.6,86,0.00,,,0.00,WUHU216HW,2013-06-28 03:28:00,
2013-06-27 23:33:00,67.8,63.4,26.42,WNW,293,0.0,4.6,86,0.00,,,0.00,WUHU216HW,2013-06-28 03:33:00,
2013-06-27 23:38:00,67.8,63.4,26.41,WNW,293,0.0,2.2,86,0.00,,,0.00,WUHU216HW,2013-06-28 03:38:00,
2013-06-27 23:43:00,67.8,63.4,26.41,WNW,293,0.0,1.7,86,0.00,,,0.00,WUHU216HW,2013-06-28 03:43:00,
2013-06-27 23:48:00,67.6,63.2,26.41,WNW,293,0.0,4.2,86,0.00,,,0.00,WUHU216HW,2013-06-28 03:48:00,
2013-06-27 23:53:00,67.6,63.2,26.41,WNW,293,2.9,4.2,86,0.00,,,0.00,WUHU216HW,2013-06-28 03:53:00,
2013-06-27 23:58:00,67.6,63.2,26.41,WNW,293,0.0,2.9,86,0.00,,,0.00,WUHU216HW,2013-06-28 03:58:00,